sensor_id;sensor_type;location;lat;lon;timestamp;P1;durP1;ratioP1;P2;durP2;ratioP2
33505;SDS011;19843;51.040;13.782;2022-09-25T00:00:45;0.60;;;0.60;;
33505;SDS011;19843;51.040;13.782;2022-09-25T00:03:14;0.75;;;0.75;;
33505;SDS011;19843;51.040;13.782;2022-09-25T00:05:43;0.65;;;0.65;;
33505;SDS011;19843;51.040;13.782;2022-09-25T00:08:13;0.80;;;0.80;;
33505;SDS011;19843;51.040;13.782;2022-09-25T00:10:43;0.70;;;0.70;;
33505;SDS011;19843;51.040;13.782;2022-09-25T00:13:13;0.60;;;0.60;;
33505;SDS011;19843;51.040;13.782;2022-09-25T00:15:44;0.70;;;0.70;;
33505;SDS011;19843;51.040;13.782;2022-09-25T00:18:13;0.70;;;0.70;;
33505;SDS011;19843;51.040;13.782;2022-09-25T00:20:41;0.57;;;0.57;;
33505;SDS011;19843;51.040;13.782;2022-09-25T00:23:08;0.60;;;0.60;;
33505;SDS011;19843;51.040;13.782;2022-09-25T00:25:37;0.60;;;0.60;;
33505;SDS011;19843;51.040;13.782;2022-09-25T00:28:04;0.50;;;0.50;;
33505;SDS011;19843;51.040;13.782;2022-09-25T00:30:32;0.60;;;0.60;;
33505;SDS011;19843;51.040;13.782;2022-09-25T00:32:59;0.50;;;0.50;;
33505;SDS011;19843;51.040;13.782;2022-09-25T00:35:26;0.50;;;0.50;;
33505;SDS011;19843;51.040;13.782;2022-09-25T00:37:54;0.55;;;0.55;;
33505;SDS011;19843;51.040;13.782;2022-09-25T00:40:21;0.50;;;0.50;;
33505;SDS011;19843;51.040;13.782;2022-09-25T00:42:51;0.50;;;0.50;;
33505;SDS011;19843;51.040;13.782;2022-09-25T00:45:18;0.50;;;0.50;;
33505;SDS011;19843;51.040;13.782;2022-09-25T00:47:51;0.55;;;0.55;;
33505;SDS011;19843;51.040;13.782;2022-09-25T00:50:25;0.60;;;0.60;;
33505;SDS011;19843;51.040;13.782;2022-09-25T00:52:58;0.50;;;0.50;;
33505;SDS011;19843;51.040;13.782;2022-09-25T00:55:31;0.70;;;0.70;;
33505;SDS011;19843;51.040;13.782;2022-09-25T00:58:01;0.60;;;0.60;;
33505;SDS011;19843;51.040;13.782;2022-09-25T01:00:31;0.60;;;0.60;;
33505;SDS011;19843;51.040;13.782;2022-09-25T01:02:59;0.60;;;0.60;;
33505;SDS011;19843;51.040;13.782;2022-09-25T01:05:30;0.50;;;0.50;;
33505;SDS011;19843;51.040;13.782;2022-09-25T01:08:02;0.57;;;0.57;;
33505;SDS011;19843;51.040;13.782;2022-09-25T01:10:32;0.60;;;0.60;;
33505;SDS011;19843;51.040;13.782;2022-09-25T01:12:59;0.60;;;0.60;;
33505;SDS011;19843;51.040;13.782;2022-09-25T01:15:30;0.70;;;0.70;;
33505;SDS011;19843;51.040;13.782;2022-09-25T01:18:04;0.70;;;0.70;;
33505;SDS011;19843;51.040;13.782;2022-09-25T01:20:46;0.75;;;0.75;;
33505;SDS011;19843;51.040;13.782;2022-09-25T01:23:29;0.68;;;0.68;;
33505;SDS011;19843;51.040;13.782;2022-09-25T01:26:14;0.68;;;0.68;;
33505;SDS011;19843;51.040;13.782;2022-09-25T01:29:01;0.65;;;0.65;;
33505;SDS011;19843;51.040;13.782;2022-09-25T01:31:37;0.70;;;0.70;;
33505;SDS011;19843;51.040;13.782;2022-09-25T01:34:13;0.63;;;0.63;;
33505;SDS011;19843;51.040;13.782;2022-09-25T01:36:47;0.73;;;0.73;;
33505;SDS011;19843;51.040;13.782;2022-09-25T01:39:24;0.80;;;0.80;;
33505;SDS011;19843;51.040;13.782;2022-09-25T01:44:28;0.65;;;0.65;;
33505;SDS011;19843;51.040;13.782;2022-09-25T01:46:58;0.80;;;0.80;;
33505;SDS011;19843;51.040;13.782;2022-09-25T01:49:31;0.90;;;0.90;;
33505;SDS011;19843;51.040;13.782;2022-09-25T01:52:04;0.70;;;0.70;;
33505;SDS011;19843;51.040;13.782;2022-09-25T01:54:36;0.60;;;0.60;;
33505;SDS011;19843;51.040;13.782;2022-09-25T01:57:08;0.80;;;0.80;;
33505;SDS011;19843;51.040;13.782;2022-09-25T01:59:40;0.65;;;0.65;;
33505;SDS011;19843;51.040;13.782;2022-09-25T02:02:13;0.60;;;0.60;;
33505;SDS011;19843;51.040;13.782;2022-09-25T02:04:46;0.60;;;0.60;;
33505;SDS011;19843;51.040;13.782;2022-09-25T02:07:20;0.60;;;0.60;;
33505;SDS011;19843;51.040;13.782;2022-09-25T02:09:55;0.70;;;0.70;;
33505;SDS011;19843;51.040;13.782;2022-09-25T02:12:30;0.70;;;0.70;;
33505;SDS011;19843;51.040;13.782;2022-09-25T02:15:04;0.60;;;0.60;;
33505;SDS011;19843;51.040;13.782;2022-09-25T02:17:39;0.60;;;0.60;;
33505;SDS011;19843;51.040;13.782;2022-09-25T02:20:29;0.60;;;0.60;;
33505;SDS011;19843;51.040;13.782;2022-09-25T02:23:01;0.60;;;0.60;;
33505;SDS011;19843;51.040;13.782;2022-09-25T02:25:35;0.55;;;0.55;;
33505;SDS011;19843;51.040;13.782;2022-09-25T02:28:06;0.60;;;0.60;;
33505;SDS011;19843;51.040;13.782;2022-09-25T02:30:35;0.60;;;0.60;;
33505;SDS011;19843;51.040;13.782;2022-09-25T02:33:03;0.70;;;0.70;;
33505;SDS011;19843;51.040;13.782;2022-09-25T02:35:31;0.70;;;0.70;;
33505;SDS011;19843;51.040;13.782;2022-09-25T02:37:59;0.77;;;0.77;;
33505;SDS011;19843;51.040;13.782;2022-09-25T02:40:28;0.80;;;0.80;;
33505;SDS011;19843;51.040;13.782;2022-09-25T02:43:05;0.70;;;0.70;;
33505;SDS011;19843;51.040;13.782;2022-09-25T02:45:46;0.60;;;0.60;;
33505;SDS011;19843;51.040;13.782;2022-09-25T02:48:24;0.60;;;0.60;;
33505;SDS011;19843;51.040;13.782;2022-09-25T02:50:58;0.50;;;0.50;;
33505;SDS011;19843;51.040;13.782;2022-09-25T02:53:34;0.70;;;0.70;;
33505;SDS011;19843;51.040;13.782;2022-09-25T02:56:05;0.80;;;0.80;;
33505;SDS011;19843;51.040;13.782;2022-09-25T02:58:38;0.80;;;0.80;;
33505;SDS011;19843;51.040;13.782;2022-09-25T03:01:11;0.80;;;0.80;;
33505;SDS011;19843;51.040;13.782;2022-09-25T03:03:41;0.80;;;0.80;;
33505;SDS011;19843;51.040;13.782;2022-09-25T03:06:11;0.90;;;0.90;;
33505;SDS011;19843;51.040;13.782;2022-09-25T03:08:43;0.80;;;0.80;;
33505;SDS011;19843;51.040;13.782;2022-09-25T03:11:14;0.70;;;0.70;;
33505;SDS011;19843;51.040;13.782;2022-09-25T03:13:45;0.70;;;0.70;;
33505;SDS011;19843;51.040;13.782;2022-09-25T03:16:24;0.70;;;0.70;;
33505;SDS011;19843;51.040;13.782;2022-09-25T03:18:58;0.70;;;0.70;;
33505;SDS011;19843;51.040;13.782;2022-09-25T03:21:26;0.70;;;0.70;;
33505;SDS011;19843;51.040;13.782;2022-09-25T03:23:53;0.85;;;0.70;;
33505;SDS011;19843;51.040;13.782;2022-09-25T03:26:22;0.65;;;0.65;;
33505;SDS011;19843;51.040;13.782;2022-09-25T03:28:50;0.60;;;0.60;;
33505;SDS011;19843;51.040;13.782;2022-09-25T03:31:18;0.75;;;0.75;;
33505;SDS011;19843;51.040;13.782;2022-09-25T03:33:47;0.63;;;0.63;;
33505;SDS011;19843;51.040;13.782;2022-09-25T03:36:15;0.68;;;0.68;;
33505;SDS011;19843;51.040;13.782;2022-09-25T03:38:46;0.60;;;0.60;;
33505;SDS011;19843;51.040;13.782;2022-09-25T03:41:14;0.70;;;0.70;;
33505;SDS011;19843;51.040;13.782;2022-09-25T03:43:46;0.77;;;0.77;;
33505;SDS011;19843;51.040;13.782;2022-09-25T03:46:17;0.70;;;0.70;;
33505;SDS011;19843;51.040;13.782;2022-09-25T03:48:49;0.70;;;0.70;;
33505;SDS011;19843;51.040;13.782;2022-09-25T03:51:17;0.70;;;0.70;;
33505;SDS011;19843;51.040;13.782;2022-09-25T03:53:45;0.70;;;0.70;;
33505;SDS011;19843;51.040;13.782;2022-09-25T03:56:13;0.70;;;0.70;;
33505;SDS011;19843;51.040;13.782;2022-09-25T03:58:43;0.70;;;0.70;;
33505;SDS011;19843;51.040;13.782;2022-09-25T04:01:10;0.82;;;0.82;;
33505;SDS011;19843;51.040;13.782;2022-09-25T04:03:38;0.70;;;0.70;;
33505;SDS011;19843;51.040;13.782;2022-09-25T04:06:07;0.68;;;0.68;;
33505;SDS011;19843;51.040;13.782;2022-09-25T04:08:35;0.70;;;0.70;;
33505;SDS011;19843;51.040;13.782;2022-09-25T04:11:03;1.55;;;1.27;;
33505;SDS011;19843;51.040;13.782;2022-09-25T04:13:31;0.70;;;0.70;;
33505;SDS011;19843;51.040;13.782;2022-09-25T04:16:01;0.70;;;0.70;;
33505;SDS011;19843;51.040;13.782;2022-09-25T04:18:31;0.70;;;0.70;;
33505;SDS011;19843;51.040;13.782;2022-09-25T04:20:59;0.70;;;0.70;;
33505;SDS011;19843;51.040;13.782;2022-09-25T04:23:28;0.70;;;0.70;;
33505;SDS011;19843;51.040;13.782;2022-09-25T04:25:56;0.70;;;0.70;;
33505;SDS011;19843;51.040;13.782;2022-09-25T04:28:24;0.70;;;0.70;;
33505;SDS011;19843;51.040;13.782;2022-09-25T04:30:52;0.70;;;0.70;;
33505;SDS011;19843;51.040;13.782;2022-09-25T04:33:19;0.60;;;0.60;;
33505;SDS011;19843;51.040;13.782;2022-09-25T04:36:04;0.80;;;0.80;;
33505;SDS011;19843;51.040;13.782;2022-09-25T04:38:33;0.70;;;0.70;;
33505;SDS011;19843;51.040;13.782;2022-09-25T04:41:01;0.60;;;0.60;;
33505;SDS011;19843;51.040;13.782;2022-09-25T04:43:29;0.60;;;0.60;;
33505;SDS011;19843;51.040;13.782;2022-09-25T04:45:59;0.60;;;0.60;;
33505;SDS011;19843;51.040;13.782;2022-09-25T04:48:27;0.60;;;0.60;;
33505;SDS011;19843;51.040;13.782;2022-09-25T04:50:55;0.60;;;0.60;;
33505;SDS011;19843;51.040;13.782;2022-09-25T04:53:23;0.60;;;0.60;;
33505;SDS011;19843;51.040;13.782;2022-09-25T04:55:53;0.60;;;0.60;;
33505;SDS011;19843;51.040;13.782;2022-09-25T04:58:26;0.60;;;0.60;;
33505;SDS011;19843;51.040;13.782;2022-09-25T05:00:53;0.60;;;0.60;;
33505;SDS011;19843;51.040;13.782;2022-09-25T05:03:21;0.60;;;0.60;;
33505;SDS011;19843;51.040;13.782;2022-09-25T05:05:48;0.65;;;0.60;;
33505;SDS011;19843;51.040;13.782;2022-09-25T05:08:15;0.63;;;0.63;;
33505;SDS011;19843;51.040;13.782;2022-09-25T05:10:43;0.80;;;0.80;;
33505;SDS011;19843;51.040;13.782;2022-09-25T05:13:11;0.60;;;0.60;;
33505;SDS011;19843;51.040;13.782;2022-09-25T05:15:39;0.70;;;0.70;;
33505;SDS011;19843;51.040;13.782;2022-09-25T05:18:07;0.80;;;0.80;;
33505;SDS011;19843;51.040;13.782;2022-09-25T05:20:39;0.80;;;0.80;;
33505;SDS011;19843;51.040;13.782;2022-09-25T05:23:06;0.80;;;0.80;;
33505;SDS011;19843;51.040;13.782;2022-09-25T05:25:34;0.80;;;0.80;;
33505;SDS011;19843;51.040;13.782;2022-09-25T05:28:01;0.80;;;0.80;;
33505;SDS011;19843;51.040;13.782;2022-09-25T05:30:31;0.73;;;0.73;;
33505;SDS011;19843;51.040;13.782;2022-09-25T05:32:59;0.80;;;0.80;;
33505;SDS011;19843;51.040;13.782;2022-09-25T05:35:28;0.70;;;0.70;;
33505;SDS011;19843;51.040;13.782;2022-09-25T05:37:57;0.70;;;0.70;;
33505;SDS011;19843;51.040;13.782;2022-09-25T05:40:24;0.70;;;0.70;;
33505;SDS011;19843;51.040;13.782;2022-09-25T05:42:53;0.77;;;0.77;;
33505;SDS011;19843;51.040;13.782;2022-09-25T05:45:21;0.70;;;0.70;;
33505;SDS011;19843;51.040;13.782;2022-09-25T05:47:59;0.60;;;0.60;;
33505;SDS011;19843;51.040;13.782;2022-09-25T05:50:27;0.63;;;0.63;;
33505;SDS011;19843;51.040;13.782;2022-09-25T05:52:55;0.70;;;0.70;;
33505;SDS011;19843;51.040;13.782;2022-09-25T05:55:23;0.70;;;0.70;;
33505;SDS011;19843;51.040;13.782;2022-09-25T05:57:50;0.70;;;0.70;;
33505;SDS011;19843;51.040;13.782;2022-09-25T06:00:18;0.73;;;0.73;;
33505;SDS011;19843;51.040;13.782;2022-09-25T06:02:49;0.70;;;0.70;;
33505;SDS011;19843;51.040;13.782;2022-09-25T06:05:19;0.70;;;0.70;;
33505;SDS011;19843;51.040;13.782;2022-09-25T06:07:50;0.70;;;0.70;;
33505;SDS011;19843;51.040;13.782;2022-09-25T06:10:19;0.70;;;0.70;;
33505;SDS011;19843;51.040;13.782;2022-09-25T06:12:46;0.68;;;0.68;;
33505;SDS011;19843;51.040;13.782;2022-09-25T06:15:14;0.60;;;0.60;;
33505;SDS011;19843;51.040;13.782;2022-09-25T06:17:41;0.70;;;0.70;;
33505;SDS011;19843;51.040;13.782;2022-09-25T06:20:09;0.60;;;0.60;;
33505;SDS011;19843;51.040;13.782;2022-09-25T06:22:42;0.70;;;0.70;;
33505;SDS011;19843;51.040;13.782;2022-09-25T06:25:10;0.60;;;0.60;;
33505;SDS011;19843;51.040;13.782;2022-09-25T06:27:37;0.60;;;0.60;;
33505;SDS011;19843;51.040;13.782;2022-09-25T06:30:05;0.55;;;0.55;;
33505;SDS011;19843;51.040;13.782;2022-09-25T06:32:33;0.60;;;0.60;;
33505;SDS011;19843;51.040;13.782;2022-09-25T06:35:00;0.60;;;0.60;;
33505;SDS011;19843;51.040;13.782;2022-09-25T06:37:29;0.50;;;0.50;;
33505;SDS011;19843;51.040;13.782;2022-09-25T06:39:58;0.60;;;0.60;;
33505;SDS011;19843;51.040;13.782;2022-09-25T06:42:25;0.60;;;0.60;;
33505;SDS011;19843;51.040;13.782;2022-09-25T06:44:52;0.70;;;0.70;;
33505;SDS011;19843;51.040;13.782;2022-09-25T06:47:20;0.60;;;0.60;;
33505;SDS011;19843;51.040;13.782;2022-09-25T06:49:52;0.70;;;0.70;;
33505;SDS011;19843;51.040;13.782;2022-09-25T06:52:19;0.70;;;0.70;;
33505;SDS011;19843;51.040;13.782;2022-09-25T06:54:46;0.73;;;0.73;;
33505;SDS011;19843;51.040;13.782;2022-09-25T06:57:15;0.80;;;0.80;;
33505;SDS011;19843;51.040;13.782;2022-09-25T06:59:42;0.82;;;0.82;;
33505;SDS011;19843;51.040;13.782;2022-09-25T07:02:10;0.88;;;0.88;;
33505;SDS011;19843;51.040;13.782;2022-09-25T07:04:54;1.00;;;1.00;;
33505;SDS011;19843;51.040;13.782;2022-09-25T07:07:22;1.00;;;1.00;;
33505;SDS011;19843;51.040;13.782;2022-09-25T07:09:50;1.20;;;1.20;;
33505;SDS011;19843;51.040;13.782;2022-09-25T07:12:18;1.00;;;1.00;;
33505;SDS011;19843;51.040;13.782;2022-09-25T07:14:47;1.08;;;1.08;;
33505;SDS011;19843;51.040;13.782;2022-09-25T07:17:14;1.13;;;1.13;;
33505;SDS011;19843;51.040;13.782;2022-09-25T07:19:41;1.17;;;1.17;;
33505;SDS011;19843;51.040;13.782;2022-09-25T07:22:09;1.10;;;1.10;;
33505;SDS011;19843;51.040;13.782;2022-09-25T07:24:37;1.20;;;1.20;;
33505;SDS011;19843;51.040;13.782;2022-09-25T07:27:05;1.20;;;1.20;;
33505;SDS011;19843;51.040;13.782;2022-09-25T07:29:34;1.10;;;1.10;;
33505;SDS011;19843;51.040;13.782;2022-09-25T07:32:01;1.20;;;1.20;;
33505;SDS011;19843;51.040;13.782;2022-09-25T07:34:29;1.20;;;1.20;;
33505;SDS011;19843;51.040;13.782;2022-09-25T07:36:57;0.82;;;0.82;;
33505;SDS011;19843;51.040;13.782;2022-09-25T07:39:24;0.90;;;0.90;;
33505;SDS011;19843;51.040;13.782;2022-09-25T07:41:52;0.80;;;0.80;;
33505;SDS011;19843;51.040;13.782;2022-09-25T07:44:20;0.70;;;0.70;;
33505;SDS011;19843;51.040;13.782;2022-09-25T07:47:04;0.75;;;0.75;;
33505;SDS011;19843;51.040;13.782;2022-09-25T07:49:34;0.80;;;0.80;;
33505;SDS011;19843;51.040;13.782;2022-09-25T07:52:01;0.70;;;0.70;;
33505;SDS011;19843;51.040;13.782;2022-09-25T07:54:31;0.80;;;0.80;;
33505;SDS011;19843;51.040;13.782;2022-09-25T07:56:59;0.70;;;0.70;;
33505;SDS011;19843;51.040;13.782;2022-09-25T07:59:27;0.80;;;0.80;;
33505;SDS011;19843;51.040;13.782;2022-09-25T08:01:54;0.80;;;0.80;;
33505;SDS011;19843;51.040;13.782;2022-09-25T08:04:24;0.70;;;0.70;;
33505;SDS011;19843;51.040;13.782;2022-09-25T08:06:52;0.80;;;0.80;;
33505;SDS011;19843;51.040;13.782;2022-09-25T08:09:19;0.75;;;0.75;;
33505;SDS011;19843;51.040;13.782;2022-09-25T08:11:46;0.70;;;0.70;;
33505;SDS011;19843;51.040;13.782;2022-09-25T08:14:14;0.80;;;0.80;;
33505;SDS011;19843;51.040;13.782;2022-09-25T08:16:41;0.80;;;0.80;;
33505;SDS011;19843;51.040;13.782;2022-09-25T08:19:09;0.73;;;0.73;;
33505;SDS011;19843;51.040;13.782;2022-09-25T08:21:38;0.80;;;0.80;;
33505;SDS011;19843;51.040;13.782;2022-09-25T08:24:05;0.80;;;0.80;;
33505;SDS011;19843;51.040;13.782;2022-09-25T08:26:33;0.90;;;0.90;;
33505;SDS011;19843;51.040;13.782;2022-09-25T08:29:01;0.82;;;0.82;;
33505;SDS011;19843;51.040;13.782;2022-09-25T08:31:29;0.75;;;0.75;;
33505;SDS011;19843;51.040;13.782;2022-09-25T08:33:57;0.80;;;0.80;;
33505;SDS011;19843;51.040;13.782;2022-09-25T08:36:47;0.80;;;0.80;;
33505;SDS011;19843;51.040;13.782;2022-09-25T08:39:16;0.80;;;0.80;;
33505;SDS011;19843;51.040;13.782;2022-09-25T08:41:45;0.70;;;0.70;;
33505;SDS011;19843;51.040;13.782;2022-09-25T08:44:18;0.85;;;0.85;;
33505;SDS011;19843;51.040;13.782;2022-09-25T08:46:51;0.82;;;0.82;;
33505;SDS011;19843;51.040;13.782;2022-09-25T08:49:46;0.60;;;0.60;;
33505;SDS011;19843;51.040;13.782;2022-09-25T08:52:18;0.60;;;0.60;;
33505;SDS011;19843;51.040;13.782;2022-09-25T08:54:47;0.70;;;0.70;;
33505;SDS011;19843;51.040;13.782;2022-09-25T08:57:20;0.70;;;0.70;;
33505;SDS011;19843;51.040;13.782;2022-09-25T08:59:54;0.60;;;0.60;;
33505;SDS011;19843;51.040;13.782;2022-09-25T09:02:31;0.68;;;0.68;;
33505;SDS011;19843;51.040;13.782;2022-09-25T09:05:03;0.80;;;0.80;;
33505;SDS011;19843;51.040;13.782;2022-09-25T09:07:42;0.75;;;0.75;;
33505;SDS011;19843;51.040;13.782;2022-09-25T09:10:16;0.70;;;0.70;;
33505;SDS011;19843;51.040;13.782;2022-09-25T09:12:51;0.70;;;0.70;;
33505;SDS011;19843;51.040;13.782;2022-09-25T09:15:24;1.05;;;0.70;;
33505;SDS011;19843;51.040;13.782;2022-09-25T09:17:56;0.68;;;0.68;;
33505;SDS011;19843;51.040;13.782;2022-09-25T09:20:30;0.50;;;0.50;;
33505;SDS011;19843;51.040;13.782;2022-09-25T09:23:05;0.60;;;0.60;;
33505;SDS011;19843;51.040;13.782;2022-09-25T09:25:42;0.70;;;0.70;;
33505;SDS011;19843;51.040;13.782;2022-09-25T09:28:25;0.60;;;0.60;;
33505;SDS011;19843;51.040;13.782;2022-09-25T09:31:11;0.60;;;0.60;;
33505;SDS011;19843;51.040;13.782;2022-09-25T09:33:48;0.65;;;0.65;;
33505;SDS011;19843;51.040;13.782;2022-09-25T09:36:26;0.50;;;0.50;;
33505;SDS011;19843;51.040;13.782;2022-09-25T09:39:04;0.73;;;0.73;;
33505;SDS011;19843;51.040;13.782;2022-09-25T09:41:44;0.60;;;0.60;;
33505;SDS011;19843;51.040;13.782;2022-09-25T09:44:25;0.50;;;0.50;;
33505;SDS011;19843;51.040;13.782;2022-09-25T09:47:06;0.40;;;0.40;;
33505;SDS011;19843;51.040;13.782;2022-09-25T09:49:38;0.43;;;0.43;;
33505;SDS011;19843;51.040;13.782;2022-09-25T09:52:12;0.40;;;0.40;;
33505;SDS011;19843;51.040;13.782;2022-09-25T09:54:46;0.40;;;0.40;;
33505;SDS011;19843;51.040;13.782;2022-09-25T09:57:19;0.43;;;0.43;;
33505;SDS011;19843;51.040;13.782;2022-09-25T09:59:51;0.50;;;0.50;;
33505;SDS011;19843;51.040;13.782;2022-09-25T10:02:31;0.77;;;0.40;;
33505;SDS011;19843;51.040;13.782;2022-09-25T10:05:05;0.43;;;0.43;;
33505;SDS011;19843;51.040;13.782;2022-09-25T10:07:37;0.53;;;0.40;;
33505;SDS011;19843;51.040;13.782;2022-09-25T10:10:10;0.50;;;0.50;;
33505;SDS011;19843;51.040;13.782;2022-09-25T10:12:41;0.50;;;0.50;;
33505;SDS011;19843;51.040;13.782;2022-09-25T10:15:14;0.50;;;0.50;;
33505;SDS011;19843;51.040;13.782;2022-09-25T10:17:45;0.47;;;0.47;;
33505;SDS011;19843;51.040;13.782;2022-09-25T10:20:14;0.40;;;0.40;;
33505;SDS011;19843;51.040;13.782;2022-09-25T10:22:46;0.40;;;0.40;;
33505;SDS011;19843;51.040;13.782;2022-09-25T10:25:32;0.57;;;0.50;;
33505;SDS011;19843;51.040;13.782;2022-09-25T10:28:19;0.40;;;0.40;;
33505;SDS011;19843;51.040;13.782;2022-09-25T10:30:48;0.40;;;0.40;;
33505;SDS011;19843;51.040;13.782;2022-09-25T10:33:17;0.40;;;0.40;;
33505;SDS011;19843;51.040;13.782;2022-09-25T10:35:47;0.55;;;0.50;;
33505;SDS011;19843;51.040;13.782;2022-09-25T10:38:25;0.50;;;0.50;;
33505;SDS011;19843;51.040;13.782;2022-09-25T10:41:00;0.50;;;0.50;;
33505;SDS011;19843;51.040;13.782;2022-09-25T10:43:30;0.45;;;0.45;;
33505;SDS011;19843;51.040;13.782;2022-09-25T10:49:11;0.40;;;0.40;;
33505;SDS011;19843;51.040;13.782;2022-09-25T10:52:02;0.40;;;0.40;;
33505;SDS011;19843;51.040;13.782;2022-09-25T10:54:31;0.40;;;0.40;;
33505;SDS011;19843;51.040;13.782;2022-09-25T10:57:13;0.50;;;0.50;;
33505;SDS011;19843;51.040;13.782;2022-09-25T10:59:45;0.50;;;0.50;;
33505;SDS011;19843;51.040;13.782;2022-09-25T11:02:39;0.50;;;0.50;;
33505;SDS011;19843;51.040;13.782;2022-09-25T11:05:13;0.50;;;0.50;;
33505;SDS011;19843;51.040;13.782;2022-09-25T11:07:45;0.60;;;0.60;;
33505;SDS011;19843;51.040;13.782;2022-09-25T11:10:20;0.60;;;0.60;;
33505;SDS011;19843;51.040;13.782;2022-09-25T11:12:51;0.55;;;0.55;;
33505;SDS011;19843;51.040;13.782;2022-09-25T11:15:20;0.65;;;0.65;;
33505;SDS011;19843;51.040;13.782;2022-09-25T11:17:50;0.43;;;0.43;;
33505;SDS011;19843;51.040;13.782;2022-09-25T11:20:20;0.73;;;0.45;;
33505;SDS011;19843;51.040;13.782;2022-09-25T11:22:57;0.43;;;0.43;;
33505;SDS011;19843;51.040;13.782;2022-09-25T11:25:31;0.40;;;0.40;;
33505;SDS011;19843;51.040;13.782;2022-09-25T11:28:08;0.65;;;0.63;;
33505;SDS011;19843;51.040;13.782;2022-09-25T11:30:43;0.52;;;0.52;;
33505;SDS011;19843;51.040;13.782;2022-09-25T11:33:17;0.52;;;0.52;;
33505;SDS011;19843;51.040;13.782;2022-09-25T11:35:52;0.57;;;0.57;;
33505;SDS011;19843;51.040;13.782;2022-09-25T11:38:26;0.60;;;0.57;;
33505;SDS011;19843;51.040;13.782;2022-09-25T11:41:19;0.68;;;0.68;;
33505;SDS011;19843;51.040;13.782;2022-09-25T11:43:58;0.60;;;0.60;;
33505;SDS011;19843;51.040;13.782;2022-09-25T11:46:36;0.50;;;0.50;;
33505;SDS011;19843;51.040;13.782;2022-09-25T11:49:11;0.40;;;0.40;;
33505;SDS011;19843;51.040;13.782;2022-09-25T11:51:54;0.43;;;0.43;;
33505;SDS011;19843;51.040;13.782;2022-09-25T11:54:39;0.65;;;0.65;;
33505;SDS011;19843;51.040;13.782;2022-09-25T11:57:15;0.57;;;0.57;;
33505;SDS011;19843;51.040;13.782;2022-09-25T11:59:58;0.75;;;0.75;;
33505;SDS011;19843;51.040;13.782;2022-09-25T12:02:37;0.70;;;0.70;;
33505;SDS011;19843;51.040;13.782;2022-09-25T12:05:17;0.50;;;0.50;;
33505;SDS011;19843;51.040;13.782;2022-09-25T12:08:06;0.60;;;0.60;;
33505;SDS011;19843;51.040;13.782;2022-09-25T12:10:45;0.70;;;0.70;;
33505;SDS011;19843;51.040;13.782;2022-09-25T12:13:21;0.57;;;0.57;;
33505;SDS011;19843;51.040;13.782;2022-09-25T12:16:08;0.60;;;0.60;;
33505;SDS011;19843;51.040;13.782;2022-09-25T12:18:47;0.50;;;0.50;;
33505;SDS011;19843;51.040;13.782;2022-09-25T12:21:26;0.40;;;0.40;;
33505;SDS011;19843;51.040;13.782;2022-09-25T12:24:01;0.50;;;0.50;;
33505;SDS011;19843;51.040;13.782;2022-09-25T12:26:42;0.40;;;0.40;;
33505;SDS011;19843;51.040;13.782;2022-09-25T12:29:21;0.60;;;0.60;;
33505;SDS011;19843;51.040;13.782;2022-09-25T12:32:01;0.60;;;0.60;;
33505;SDS011;19843;51.040;13.782;2022-09-25T12:34:38;0.80;;;0.80;;
33505;SDS011;19843;51.040;13.782;2022-09-25T12:37:19;0.75;;;0.70;;
33505;SDS011;19843;51.040;13.782;2022-09-25T12:39:55;0.60;;;0.60;;
33505;SDS011;19843;51.040;13.782;2022-09-25T12:42:28;0.70;;;0.70;;
33505;SDS011;19843;51.040;13.782;2022-09-25T12:45:10;0.60;;;0.60;;
33505;SDS011;19843;51.040;13.782;2022-09-25T12:47:44;0.60;;;0.60;;
33505;SDS011;19843;51.040;13.782;2022-09-25T12:50:16;0.50;;;0.50;;
33505;SDS011;19843;51.040;13.782;2022-09-25T12:52:47;0.45;;;0.45;;
33505;SDS011;19843;51.040;13.782;2022-09-25T12:55:20;0.50;;;0.50;;
33505;SDS011;19843;51.040;13.782;2022-09-25T12:57:51;0.50;;;0.50;;
33505;SDS011;19843;51.040;13.782;2022-09-25T13:00:28;0.57;;;0.50;;
33505;SDS011;19843;51.040;13.782;2022-09-25T13:02:59;0.47;;;0.47;;
33505;SDS011;19843;51.040;13.782;2022-09-25T13:05:31;0.40;;;0.40;;
33505;SDS011;19843;51.040;13.782;2022-09-25T13:08:02;0.50;;;0.50;;
33505;SDS011;19843;51.040;13.782;2022-09-25T13:10:36;0.50;;;0.50;;
33505;SDS011;19843;51.040;13.782;2022-09-25T13:13:08;0.50;;;0.50;;
33505;SDS011;19843;51.040;13.782;2022-09-25T13:15:44;0.57;;;0.57;;
33505;SDS011;19843;51.040;13.782;2022-09-25T13:18:19;0.70;;;0.70;;
33505;SDS011;19843;51.040;13.782;2022-09-25T13:20:49;0.80;;;0.80;;
33505;SDS011;19843;51.040;13.782;2022-09-25T13:23:29;0.70;;;0.70;;
33505;SDS011;19843;51.040;13.782;2022-09-25T13:26:00;0.50;;;0.50;;
33505;SDS011;19843;51.040;13.782;2022-09-25T13:28:35;0.55;;;0.55;;
33505;SDS011;19843;51.040;13.782;2022-09-25T13:31:06;0.60;;;0.60;;
33505;SDS011;19843;51.040;13.782;2022-09-25T13:33:40;0.70;;;0.70;;
33505;SDS011;19843;51.040;13.782;2022-09-25T13:36:29;0.60;;;0.60;;
33505;SDS011;19843;51.040;13.782;2022-09-25T13:39:04;0.50;;;0.50;;
33505;SDS011;19843;51.040;13.782;2022-09-25T13:41:58;0.50;;;0.50;;
33505;SDS011;19843;51.040;13.782;2022-09-25T13:44:36;0.50;;;0.50;;
33505;SDS011;19843;51.040;13.782;2022-09-25T13:50:24;0.50;;;0.50;;
33505;SDS011;19843;51.040;13.782;2022-09-25T13:56:04;0.55;;;0.55;;
33505;SDS011;19843;51.040;13.782;2022-09-25T13:58:58;0.57;;;0.57;;
33505;SDS011;19843;51.040;13.782;2022-09-25T14:01:41;0.50;;;0.50;;
33505;SDS011;19843;51.040;13.782;2022-09-25T14:04:14;0.60;;;0.60;;
33505;SDS011;19843;51.040;13.782;2022-09-25T14:06:49;0.68;;;0.68;;
33505;SDS011;19843;51.040;13.782;2022-09-25T14:09:19;0.60;;;0.60;;
33505;SDS011;19843;51.040;13.782;2022-09-25T14:11:50;0.80;;;0.80;;
33505;SDS011;19843;51.040;13.782;2022-09-25T14:14:24;0.50;;;0.50;;
33505;SDS011;19843;51.040;13.782;2022-09-25T14:16:56;0.60;;;0.60;;
33505;SDS011;19843;51.040;13.782;2022-09-25T14:19:26;0.50;;;0.50;;
33505;SDS011;19843;51.040;13.782;2022-09-25T14:21:58;0.60;;;0.60;;
33505;SDS011;19843;51.040;13.782;2022-09-25T14:24:29;0.60;;;0.60;;
33505;SDS011;19843;51.040;13.782;2022-09-25T14:26:57;0.77;;;0.77;;
33505;SDS011;19843;51.040;13.782;2022-09-25T14:29:30;0.80;;;0.80;;
33505;SDS011;19843;51.040;13.782;2022-09-25T14:32:03;0.70;;;0.70;;
33505;SDS011;19843;51.040;13.782;2022-09-25T14:38:12;0.75;;;0.75;;
33505;SDS011;19843;51.040;13.782;2022-09-25T14:41:09;0.50;;;0.50;;
33505;SDS011;19843;51.040;13.782;2022-09-25T14:43:57;0.50;;;0.50;;
33505;SDS011;19843;51.040;13.782;2022-09-25T14:46:43;0.40;;;0.40;;
33505;SDS011;19843;51.040;13.782;2022-09-25T14:49:17;0.50;;;0.50;;
33505;SDS011;19843;51.040;13.782;2022-09-25T14:51:50;0.70;;;0.70;;
33505;SDS011;19843;51.040;13.782;2022-09-25T14:54:22;0.52;;;0.52;;
33505;SDS011;19843;51.040;13.782;2022-09-25T14:56:55;0.60;;;0.50;;
33505;SDS011;19843;51.040;13.782;2022-09-25T14:59:26;0.40;;;0.40;;
33505;SDS011;19843;51.040;13.782;2022-09-25T15:01:58;0.50;;;0.50;;
33505;SDS011;19843;51.040;13.782;2022-09-25T15:04:29;0.52;;;0.52;;
33505;SDS011;19843;51.040;13.782;2022-09-25T15:07:00;0.50;;;0.50;;
33505;SDS011;19843;51.040;13.782;2022-09-25T15:09:35;0.73;;;0.73;;
33505;SDS011;19843;51.040;13.782;2022-09-25T15:12:12;0.60;;;0.60;;
33505;SDS011;19843;51.040;13.782;2022-09-25T15:14:56;0.50;;;0.50;;
33505;SDS011;19843;51.040;13.782;2022-09-25T15:17:25;0.50;;;0.50;;
33505;SDS011;19843;51.040;13.782;2022-09-25T15:19:52;0.82;;;0.80;;